KBAB/BAB METAR and TAF weather

Enter ICAO airport designator
Station Type Date Time Source
KBAB METAR 2018/09/21 11:56 UTC NOAA

KBAB 211156Z AUTO 00000KT 10SM CLR 14/07 A2988 RMK AO2 SLP121 T01360067 10198 20126 52008 $


Station Type Date Time Source
KBAB Decoded METAR 2018/09/21 11:56 UTC NOAA

Marysville, Beale Air Force Base, CA, United States (KBAB) 39-08N 121-26W
Sep 21, 2018 - 07:56 AM EDT / 2018.09.21 1156 UTC
Wind: Calm:0
Visibility: 10 mile(s):0
Sky conditions: clear
Temperature: 56.5 F (13.6 C)
Dew Point: 44.1 F (6.7 C)
Relative Humidity: 63%
Pressure (altimeter): 29.88 in. Hg (1011 hPa)
Pressure tendency: 0.02 inches (0.8 hPa) higher than three hours ago
ob: KBAB 211156Z AUTO 00000KT 10SM CLR 14/07 A2988 RMK AO2 SLP121 T01360067 10198 20126 52008
cycle: 12

Station Type Date Time Source
KBAB TAF 2018/09/21 11:06 UTC NOAA

TAF KBAB 211102Z 2111/2217 VRB06KT 9999 SKC QNH2988INS
BECMG 2120/2121 20009KT 9999 SKC QNH2988INS
BECMG 2202/2203 VRB06KT 9999 SKC QNH2990INS TX33/2123Z TN16/2112Z


Example: see airport list